sensor_id;sensor_type;location;lat;lon;timestamp;pressure;altitude;pressure_sealevel;temperature;humidity
21779;BME280;11050;52.222;20.916;2022-10-31T00:00:28;100497.50;;;10.87;100.00
21779;BME280;11050;52.222;20.916;2022-10-31T00:02:54;100495.94;;;10.91;100.00
21779;BME280;11050;52.222;20.916;2022-10-31T00:05:21;100497.03;;;10.90;100.00
21779;BME280;11050;52.222;20.916;2022-10-31T00:07:47;100505.75;;;10.87;100.00
21779;BME280;11050;52.222;20.916;2022-10-31T00:10:12;100504.91;;;10.86;100.00
21779;BME280;11050;52.222;20.916;2022-10-31T00:12:38;100506.03;;;10.85;100.00
21779;BME280;11050;52.222;20.916;2022-10-31T00:15:04;100511.78;;;10.84;100.00
21779;BME280;11050;52.222;20.916;2022-10-31T00:17:30;100516.69;;;10.82;100.00
21779;BME280;11050;52.222;20.916;2022-10-31T00:19:56;100504.84;;;10.81;100.00
21779;BME280;11050;52.222;20.916;2022-10-31T00:22:22;100511.66;;;10.79;100.00
21779;BME280;11050;52.222;20.916;2022-10-31T00:24:48;100504.25;;;10.79;100.00
21779;BME280;11050;52.222;20.916;2022-10-31T00:27:13;100502.84;;;10.77;100.00
21779;BME280;11050;52.222;20.916;2022-10-31T00:29:39;100511.84;;;10.72;100.00
21779;BME280;11050;52.222;20.916;2022-10-31T00:32:05;100511.69;;;10.62;100.00
21779;BME280;11050;52.222;20.916;2022-10-31T00:34:31;100509.09;;;10.56;100.00
21779;BME280;11050;52.222;20.916;2022-10-31T00:36:56;100498.34;;;10.54;100.00
21779;BME280;11050;52.222;20.916;2022-10-31T00:39:22;100504.41;;;10.56;100.00
21779;BME280;11050;52.222;20.916;2022-10-31T00:41:48;100510.50;;;10.58;100.00
21779;BME280;11050;52.222;20.916;2022-10-31T00:44:13;100511.94;;;10.61;100.00
21779;BME280;11050;52.222;20.916;2022-10-31T00:46:39;100518.00;;;10.63;100.00
21779;BME280;11050;52.222;20.916;2022-10-31T00:49:05;100516.09;;;10.63;100.00
21779;BME280;11050;52.222;20.916;2022-10-31T00:51:31;100527.44;;;10.67;100.00
21779;BME280;11050;52.222;20.916;2022-10-31T00:53:56;100518.94;;;10.68;100.00
21779;BME280;11050;52.222;20.916;2022-10-31T00:56:22;100518.34;;;10.66;100.00
21779;BME280;11050;52.222;20.916;2022-10-31T00:58:48;100519.19;;;10.67;100.00
21779;BME280;11050;52.222;20.916;2022-10-31T01:01:14;100518.94;;;10.68;100.00
21779;BME280;11050;52.222;20.916;2022-10-31T01:03:39;100510.69;;;10.68;100.00
21779;BME280;11050;52.222;20.916;2022-10-31T01:06:12;100514.53;;;10.67;100.00
21779;BME280;11050;52.222;20.916;2022-10-31T01:08:39;100509.25;;;10.66;100.00
21779;BME280;11050;52.222;20.916;2022-10-31T01:13:33;100516.31;;;10.62;100.00
21779;BME280;11050;52.222;20.916;2022-10-31T01:16:00;100522.19;;;10.65;100.00
21779;BME280;11050;52.222;20.916;2022-10-31T01:18:27;100507.88;;;10.63;100.00
21779;BME280;11050;52.222;20.916;2022-10-31T01:21:06;100522.19;;;10.65;100.00
21779;BME280;11050;52.222;20.916;2022-10-31T01:23:33;100516.91;;;10.64;100.00
21779;BME280;11050;52.222;20.916;2022-10-31T01:26:16;100516.31;;;10.62;100.00
21779;BME280;11050;52.222;20.916;2022-10-31T01:28:47;100516.59;;;10.60;100.00
21779;BME280;11050;52.222;20.916;2022-10-31T01:31:16;100516.59;;;10.60;100.00
21779;BME280;11050;52.222;20.916;2022-10-31T01:33:43;100522.34;;;10.59;100.00
21779;BME280;11050;52.222;20.916;2022-10-31T01:36:27;100519.00;;;10.57;100.00
21779;BME280;11050;52.222;20.916;2022-10-31T01:38:59;100522.84;;;10.56;100.00
21779;BME280;11050;52.222;20.916;2022-10-31T01:41:30;100519.75;;;10.52;100.00
21779;BME280;11050;52.222;20.916;2022-10-31T01:47:03;100520.00;;;10.50;100.00
21779;BME280;11050;52.222;20.916;2022-10-31T01:49:49;100524.41;;;10.52;100.00
21779;BME280;11050;52.222;20.916;2022-10-31T01:52:44;100518.34;;;10.49;100.00
21779;BME280;11050;52.222;20.916;2022-10-31T01:55:39;100527.66;;;10.48;100.00
21779;BME280;11050;52.222;20.916;2022-10-31T01:58:19;100515.00;;;10.47;100.00
21779;BME280;11050;52.222;20.916;2022-10-31T02:00:52;100518.59;;;10.48;100.00
21779;BME280;11050;52.222;20.916;2022-10-31T02:03:22;100514.41;;;10.45;100.00
21779;BME280;11050;52.222;20.916;2022-10-31T02:05:49;100520.75;;;10.46;100.00
21779;BME280;11050;52.222;20.916;2022-10-31T02:08:35;100529.47;;;10.43;100.00
21779;BME280;11050;52.222;20.916;2022-10-31T02:11:02;100527.81;;;10.42;100.00
21779;BME280;11050;52.222;20.916;2022-10-31T02:13:29;100524.75;;;10.38;100.00
21779;BME280;11050;52.222;20.916;2022-10-31T02:15:58;100523.97;;;10.43;100.00
21779;BME280;11050;52.222;20.916;2022-10-31T02:18:27;100510.50;;;10.41;100.00
21779;BME280;11050;52.222;20.916;2022-10-31T02:26:45;100525.53;;;10.39;100.00
21779;BME280;11050;52.222;20.916;2022-10-31T02:32:17;100517.81;;;10.36;100.00
21779;BME280;11050;52.222;20.916;2022-10-31T02:40:54;100518.31;;;10.33;100.00
21779;BME280;11050;52.222;20.916;2022-10-31T02:46:14;100525.38;;;10.29;100.00
21779;BME280;11050;52.222;20.916;2022-10-31T02:48:46;100519.88;;;10.29;100.00
21779;BME280;11050;52.222;20.916;2022-10-31T02:51:14;100524.19;;;10.25;100.00
21779;BME280;11050;52.222;20.916;2022-10-31T02:53:40;100519.44;;;10.20;100.00
21779;BME280;11050;52.222;20.916;2022-10-31T02:58:43;100524.13;;;10.20;100.00
21779;BME280;11050;52.222;20.916;2022-10-31T03:12:11;100556.47;;;10.18;100.00
21779;BME280;11050;52.222;20.916;2022-10-31T03:14:52;100555.97;;;10.21;100.00
21779;BME280;11050;52.222;20.916;2022-10-31T03:17:34;100550.81;;;10.24;100.00
21779;BME280;11050;52.222;20.916;2022-10-31T03:20:06;100558.59;;;10.27;100.00
21779;BME280;11050;52.222;20.916;2022-10-31T03:22:36;100562.75;;;10.30;100.00
21779;BME280;11050;52.222;20.916;2022-10-31T03:25:06;100559.75;;;10.31;100.00
21779;BME280;11050;52.222;20.916;2022-10-31T03:27:35;100557.59;;;10.33;100.00
21779;BME280;11050;52.222;20.916;2022-10-31T03:30:05;100555.94;;;10.32;100.00
21779;BME280;11050;52.222;20.916;2022-10-31T03:32:46;100565.00;;;10.33;100.00
21779;BME280;11050;52.222;20.916;2022-10-31T03:35:17;100566.34;;;10.30;100.00
21779;BME280;11050;52.222;20.916;2022-10-31T03:37:46;100569.81;;;10.26;100.00
21779;BME280;11050;52.222;20.916;2022-10-31T03:40:16;100563.72;;;10.24;100.00
21779;BME280;11050;52.222;20.916;2022-10-31T03:42:52;100569.22;;;10.24;100.00
21779;BME280;11050;52.222;20.916;2022-10-31T03:45:27;100568.63;;;10.22;100.00
21779;BME280;11050;52.222;20.916;2022-10-31T03:47:54;100571.38;;;10.22;100.00
21779;BME280;11050;52.222;20.916;2022-10-31T03:50:29;100564.72;;;10.18;100.00
21779;BME280;11050;52.222;20.916;2022-10-31T03:53:22;100567.69;;;10.16;100.00
21779;BME280;11050;52.222;20.916;2022-10-31T03:56:01;100558.53;;;10.11;100.00
21779;BME280;11050;52.222;20.916;2022-10-31T03:58:37;100562.09;;;10.11;100.00
21779;BME280;11050;52.222;20.916;2022-10-31T04:01:11;100574.63;;;10.07;100.00
21779;BME280;11050;52.222;20.916;2022-10-31T04:03:39;100571.28;;;10.05;100.00
21779;BME280;11050;52.222;20.916;2022-10-31T04:06:12;100571.03;;;10.07;100.00
21779;BME280;11050;52.222;20.916;2022-10-31T04:08:46;100576.53;;;10.07;100.00
21779;BME280;11050;52.222;20.916;2022-10-31T04:11:18;100570.47;;;10.05;100.00
21779;BME280;11050;52.222;20.916;2022-10-31T04:13:47;100567.00;;;9.98;100.00
21779;BME280;11050;52.222;20.916;2022-10-31T04:16:16;100565.69;;;10.00;100.00
21779;BME280;11050;52.222;20.916;2022-10-31T04:18:42;100572.03;;;10.01;100.00
21779;BME280;11050;52.222;20.916;2022-10-31T04:21:08;100566.41;;;9.96;100.00
21779;BME280;11050;52.222;20.916;2022-10-31T04:23:36;100572.50;;;9.98;100.00
21779;BME280;11050;52.222;20.916;2022-10-31T04:26:02;100576.34;;;9.97;100.00
21779;BME280;11050;52.222;20.916;2022-10-31T04:28:28;100576.59;;;9.95;100.00
21779;BME280;11050;52.222;20.916;2022-10-31T04:30:54;100581.25;;;9.95;100.00
21779;BME280;11050;52.222;20.916;2022-10-31T04:33:20;100572.16;;;9.94;100.00
21779;BME280;11050;52.222;20.916;2022-10-31T04:35:46;100567.75;;;9.93;100.00
21779;BME280;11050;52.222;20.916;2022-10-31T04:38:12;100574.66;;;9.96;100.00
21779;BME280;11050;52.222;20.916;2022-10-31T04:40:38;100573.59;;;9.97;100.00
21779;BME280;11050;52.222;20.916;2022-10-31T04:43:04;100576.34;;;9.97;100.00
21779;BME280;11050;52.222;20.916;2022-10-31T04:45:29;100581.00;;;9.96;100.00
21779;BME280;11050;52.222;20.916;2022-10-31T04:47:55;100574.66;;;9.96;100.00
21779;BME280;11050;52.222;20.916;2022-10-31T04:50:21;100581.25;;;9.95;100.00
21779;BME280;11050;52.222;20.916;2022-10-31T04:52:47;100585.03;;;9.94;100.00
21779;BME280;11050;52.222;20.916;2022-10-31T04:55:14;100578.97;;;9.92;100.00
21779;BME280;11050;52.222;20.916;2022-10-31T04:57:48;100577.22;;;9.86;100.00
21779;BME280;11050;52.222;20.916;2022-10-31T05:00:18;100594.38;;;9.93;100.00
21779;BME280;11050;52.222;20.916;2022-10-31T05:03:02;100588.03;;;9.92;100.00
21779;BME280;11050;52.222;20.916;2022-10-31T05:05:30;100596.03;;;9.94;100.00
21779;BME280;11050;52.222;20.916;2022-10-31T05:07:56;100594.38;;;9.93;100.00
21779;BME280;11050;52.222;20.916;2022-10-31T05:10:29;100598.19;;;9.92;100.00
21779;BME280;11050;52.222;20.916;2022-10-31T05:12:58;100589.38;;;9.90;100.00
21779;BME280;11050;52.222;20.916;2022-10-31T05:15:26;100599.84;;;9.93;100.00
21779;BME280;11050;52.222;20.916;2022-10-31T05:17:53;100598.56;;;9.95;100.00
21779;BME280;11050;52.222;20.916;2022-10-31T05:20:23;100601.06;;;9.97;100.00
21779;BME280;11050;52.222;20.916;2022-10-31T05:22:52;100593.06;;;9.95;100.00
21779;BME280;11050;52.222;20.916;2022-10-31T05:25:21;100594.22;;;9.99;100.00
21779;BME280;11050;52.222;20.916;2022-10-31T05:27:49;100601.38;;;10.00;100.00
21779;BME280;11050;52.222;20.916;2022-10-31T05:30:19;100602.22;;;10.01;100.00
21779;BME280;11050;52.222;20.916;2022-10-31T05:32:49;100601.38;;;10.00;100.00
21779;BME280;11050;52.222;20.916;2022-10-31T05:35:22;100603.88;;;10.02;100.00
21779;BME280;11050;52.222;20.916;2022-10-31T05:37:48;100593.41;;;9.99;100.00
21779;BME280;11050;52.222;20.916;2022-10-31T05:40:16;100605.06;;;10.06;100.00
21779;BME280;11050;52.222;20.916;2022-10-31T05:42:43;100602.94;;;10.08;100.00
21779;BME280;11050;52.222;20.916;2022-10-31T05:45:15;100608.19;;;10.09;100.00
21779;BME280;11050;52.222;20.916;2022-10-31T05:47:42;100609.63;;;10.12;100.00
21779;BME280;11050;52.222;20.916;2022-10-31T05:50:09;100603.06;;;10.13;100.00
21779;BME280;11050;52.222;20.916;2022-10-31T05:52:35;100592.06;;;10.13;100.00
21779;BME280;11050;52.222;20.916;2022-10-31T05:55:02;100605.91;;;10.18;100.00
21779;BME280;11050;52.222;20.916;2022-10-31T05:57:29;100598.28;;;10.20;100.00
21779;BME280;11050;52.222;20.916;2022-10-31T05:59:54;100607.44;;;10.25;100.00
21779;BME280;11050;52.222;20.916;2022-10-31T06:02:21;100598.97;;;10.27;100.00
21779;BME280;11050;52.222;20.916;2022-10-31T06:04:47;100593.81;;;10.30;100.00
21779;BME280;11050;52.222;20.916;2022-10-31T06:07:13;100606.31;;;10.38;100.00
21779;BME280;11050;52.222;20.916;2022-10-31T06:09:39;100604.50;;;10.43;100.00
21779;BME280;11050;52.222;20.916;2022-10-31T06:12:05;100610.91;;;10.49;100.00
21779;BME280;11050;52.222;20.916;2022-10-31T06:14:31;100612.09;;;10.53;100.00
21779;BME280;11050;52.222;20.916;2022-10-31T06:16:57;100608.25;;;10.54;100.00
21779;BME280;11050;52.222;20.916;2022-10-31T06:19:22;100616.94;;;10.63;100.00
21779;BME280;11050;52.222;20.916;2022-10-31T06:21:48;100615.13;;;10.68;100.00
21779;BME280;11050;52.222;20.916;2022-10-31T06:24:14;100617.38;;;10.71;100.00
21779;BME280;11050;52.222;20.916;2022-10-31T06:26:42;100622.47;;;10.79;100.00
21779;BME280;11050;52.222;20.916;2022-10-31T06:29:08;100624.97;;;10.81;100.00
21779;BME280;11050;52.222;20.916;2022-10-31T06:31:34;100622.09;;;10.87;100.00
21779;BME280;11050;52.222;20.916;2022-10-31T06:34:00;100626.00;;;10.91;100.00
21779;BME280;11050;52.222;20.916;2022-10-31T06:36:25;100627.78;;;10.97;100.00
21779;BME280;11050;52.222;20.916;2022-10-31T06:38:51;100628.31;;;10.99;100.00
21779;BME280;11050;52.222;20.916;2022-10-31T06:41:17;100623.84;;;11.10;100.00
21779;BME280;11050;52.222;20.916;2022-10-31T06:43:46;100619.78;;;11.12;100.00
21779;BME280;11050;52.222;20.916;2022-10-31T06:46:13;100630.94;;;11.22;100.00
21779;BME280;11050;52.222;20.916;2022-10-31T06:48:41;100636.53;;;11.27;100.00
21779;BME280;11050;52.222;20.916;2022-10-31T06:51:07;100638.25;;;11.33;100.00
21779;BME280;11050;52.222;20.916;2022-10-31T06:53:33;100636.69;;;11.37;100.00
21779;BME280;11050;52.222;20.916;2022-10-31T06:55:59;100635.34;;;11.40;100.00
21779;BME280;11050;52.222;20.916;2022-10-31T06:58:24;100639.00;;;11.45;100.00
21779;BME280;11050;52.222;20.916;2022-10-31T07:00:50;100636.34;;;11.51;100.00
21779;BME280;11050;52.222;20.916;2022-10-31T07:03:16;100632.84;;;11.55;100.00
21779;BME280;11050;52.222;20.916;2022-10-31T07:05:43;100635.91;;;11.59;100.00
21779;BME280;11050;52.222;20.916;2022-10-31T07:08:12;100626.66;;;11.65;100.00
21779;BME280;11050;52.222;20.916;2022-10-31T07:10:40;100633.41;;;11.74;100.00
21779;BME280;11050;52.222;20.916;2022-10-31T07:13:13;100638.50;;;11.82;100.00
21779;BME280;11050;52.222;20.916;2022-10-31T07:15:41;100639.41;;;11.87;100.00
21779;BME280;11050;52.222;20.916;2022-10-31T07:18:10;100638.88;;;11.90;100.00
21779;BME280;11050;52.222;20.916;2022-10-31T07:20:37;100641.72;;;11.95;100.00
21779;BME280;11050;52.222;20.916;2022-10-31T07:23:03;100641.84;;;12.05;100.00
21779;BME280;11050;52.222;20.916;2022-10-31T07:25:29;100635.38;;;12.16;100.00
21779;BME280;11050;52.222;20.916;2022-10-31T07:27:56;100645.13;;;12.24;100.00
21779;BME280;11050;52.222;20.916;2022-10-31T07:30:21;100640.00;;;12.32;100.00
21779;BME280;11050;52.222;20.916;2022-10-31T07:32:50;100642.81;;;12.37;100.00
21779;BME280;11050;52.222;20.916;2022-10-31T07:35:21;100645.44;;;12.49;100.00
21779;BME280;11050;52.222;20.916;2022-10-31T07:37:48;100641.34;;;12.52;100.00
21779;BME280;11050;52.222;20.916;2022-10-31T07:40:15;100635.09;;;12.61;100.00
21779;BME280;11050;52.222;20.916;2022-10-31T07:42:44;100645.06;;;12.67;100.00
21779;BME280;11050;52.222;20.916;2022-10-31T07:45:14;100640.78;;;12.76;100.00
21779;BME280;11050;52.222;20.916;2022-10-31T07:47:46;100637.84;;;12.88;100.00
21779;BME280;11050;52.222;20.916;2022-10-31T07:50:35;100645.34;;;12.92;100.00
21779;BME280;11050;52.222;20.916;2022-10-31T07:53:04;100646.78;;;13.00;100.00
21779;BME280;11050;52.222;20.916;2022-10-31T07:55:30;100642.13;;;13.00;100.00
21779;BME280;11050;52.222;20.916;2022-10-31T07:58:12;100653.16;;;13.00;100.00
21779;BME280;11050;52.222;20.916;2022-10-31T08:00:41;100649.91;;;13.03;100.00
21779;BME280;11050;52.222;20.916;2022-10-31T08:03:11;100661.03;;;13.13;100.00
21779;BME280;11050;52.222;20.916;2022-10-31T08:05:38;100659.47;;;13.22;100.00
21779;BME280;11050;52.222;20.916;2022-10-31T08:08:05;100657.84;;;13.26;100.00
21779;BME280;11050;52.222;20.916;2022-10-31T08:10:32;100660.69;;;13.37;100.00
21779;BME280;11050;52.222;20.916;2022-10-31T08:13:01;100665.72;;;13.45;100.00
21779;BME280;11050;52.222;20.916;2022-10-31T08:15:28;100668.03;;;13.58;100.00
21779;BME280;11050;52.222;20.916;2022-10-31T08:17:55;100666.69;;;13.65;100.00
21779;BME280;11050;52.222;20.916;2022-10-31T08:20:21;100677.56;;;13.77;100.00
21779;BME280;11050;52.222;20.916;2022-10-31T08:23:00;100669.34;;;13.87;100.00
21779;BME280;11050;52.222;20.916;2022-10-31T08:25:28;100669.41;;;13.97;100.00
21779;BME280;11050;52.222;20.916;2022-10-31T08:27:56;100666.38;;;13.98;100.00
21779;BME280;11050;52.222;20.916;2022-10-31T08:30:29;100674.97;;;14.07;100.00
21779;BME280;11050;52.222;20.916;2022-10-31T08:33:10;100675.06;;;14.17;100.00
21779;BME280;11050;52.222;20.916;2022-10-31T08:35:36;100684.50;;;14.26;100.00
21779;BME280;11050;52.222;20.916;2022-10-31T08:38:02;100683.72;;;14.31;100.00
21779;BME280;11050;52.222;20.916;2022-10-31T08:40:30;100682.63;;;14.32;100.00
21779;BME280;11050;52.222;20.916;2022-10-31T08:43:26;100694.03;;;14.50;100.00
21779;BME280;11050;52.222;20.916;2022-10-31T08:45:52;100692.44;;;14.59;100.00
21779;BME280;11050;52.222;20.916;2022-10-31T08:48:21;100690.25;;;14.66;100.00
21779;BME280;11050;52.222;20.916;2022-10-31T08:50:47;100691.66;;;14.74;100.00
21779;BME280;11050;52.222;20.916;2022-10-31T08:53:18;100693.91;;;14.87;100.00
21779;BME280;11050;52.222;20.916;2022-10-31T08:55:46;100698.63;;;15.01;100.00
21779;BME280;11050;52.222;20.916;2022-10-31T08:58:17;100691.19;;;15.12;100.00
21779;BME280;11050;52.222;20.916;2022-10-31T09:00:46;100692.31;;;15.21;100.00
21779;BME280;11050;52.222;20.916;2022-10-31T09:03:21;100689.81;;;15.30;100.00
21779;BME280;11050;52.222;20.916;2022-10-31T09:05:47;100687.06;;;15.35;100.00
21779;BME280;11050;52.222;20.916;2022-10-31T09:08:14;100692.63;;;15.35;100.00
21779;BME280;11050;52.222;20.916;2022-10-31T09:10:40;100688.44;;;15.37;100.00
21779;BME280;11050;52.222;20.916;2022-10-31T09:13:10;100687.66;;;15.47;100.00
21779;BME280;11050;52.222;20.916;2022-10-31T09:15:39;100696.53;;;15.49;100.00
21779;BME280;11050;52.222;20.916;2022-10-31T09:18:07;100697.34;;;15.54;100.00
21779;BME280;11050;52.222;20.916;2022-10-31T09:20:36;100697.63;;;15.63;100.00
21779;BME280;11050;52.222;20.916;2022-10-31T09:23:15;100699.56;;;15.77;100.00
21779;BME280;11050;52.222;20.916;2022-10-31T09:25:42;100691.25;;;15.82;98.73
21779;BME280;11050;52.222;20.916;2022-10-31T09:28:12;100696.50;;;15.94;98.88
21779;BME280;11050;52.222;20.916;2022-10-31T09:30:39;100679.31;;;15.97;96.77
21779;BME280;11050;52.222;20.916;2022-10-31T09:33:09;100690.66;;;16.05;97.20
21779;BME280;11050;52.222;20.916;2022-10-31T09:35:36;100695.06;;;16.17;96.42
21779;BME280;11050;52.222;20.916;2022-10-31T09:38:09;100696.69;;;16.28;95.50
21779;BME280;11050;52.222;20.916;2022-10-31T09:40:52;100698.06;;;16.35;94.76
21779;BME280;11050;52.222;20.916;2022-10-31T09:46:54;100698.56;;;16.62;91.82
21779;BME280;11050;52.222;20.916;2022-10-31T09:52:22;100706.47;;;16.84;89.66
21779;BME280;11050;52.222;20.916;2022-10-31T09:55:03;100707.28;;;16.94;88.68
21779;BME280;11050;52.222;20.916;2022-10-31T09:57:41;100710.56;;;17.01;87.22
21779;BME280;11050;52.222;20.916;2022-10-31T10:00:17;100715.78;;;17.13;86.53
21779;BME280;11050;52.222;20.916;2022-10-31T10:02:51;100710.47;;;17.17;85.55
21779;BME280;11050;52.222;20.916;2022-10-31T10:05:33;100703.78;;;17.23;83.32
21779;BME280;11050;52.222;20.916;2022-10-31T10:59:54;100682.00;;;20.71;64.55
21779;BME280;11050;52.222;20.916;2022-10-31T11:02:25;100680.94;;;20.94;63.31
21779;BME280;11050;52.222;20.916;2022-10-31T11:05:00;100690.81;;;21.27;62.84
21779;BME280;11050;52.222;20.916;2022-10-31T11:07:38;100688.75;;;21.55;60.96
21779;BME280;11050;52.222;20.916;2022-10-31T11:10:11;100682.13;;;21.73;60.73
21779;BME280;11050;52.222;20.916;2022-10-31T11:12:41;100682.97;;;21.96;60.59
21779;BME280;11050;52.222;20.916;2022-10-31T11:15:23;100693.19;;;22.22;59.31
21779;BME280;11050;52.222;20.916;2022-10-31T11:17:56;100686.81;;;22.39;59.51
21779;BME280;11050;52.222;20.916;2022-10-31T11:20:33;100694.06;;;22.71;58.92
21779;BME280;11050;52.222;20.916;2022-10-31T11:23:22;100688.19;;;23.06;56.20
21779;BME280;11050;52.222;20.916;2022-10-31T11:25:58;100693.88;;;23.32;54.90
21779;BME280;11050;52.222;20.916;2022-10-31T11:28:27;100694.53;;;23.46;54.34
21779;BME280;11050;52.222;20.916;2022-10-31T11:30:59;100691.41;;;23.73;53.86
21779;BME280;11050;52.222;20.916;2022-10-31T11:36:23;100687.47;;;24.29;52.25
21779;BME280;11050;52.222;20.916;2022-10-31T11:38:51;100695.22;;;24.40;52.36
21779;BME280;11050;52.222;20.916;2022-10-31T11:41:28;100681.28;;;24.53;51.23
21779;BME280;11050;52.222;20.916;2022-10-31T11:44:20;100691.63;;;24.69;51.25
21779;BME280;11050;52.222;20.916;2022-10-31T11:46:58;100689.09;;;24.85;50.14
21779;BME280;11050;52.222;20.916;2022-10-31T11:49:37;100692.56;;;25.11;49.75
21779;BME280;11050;52.222;20.916;2022-10-31T11:52:26;100686.09;;;25.60;47.68
21779;BME280;11050;52.222;20.916;2022-10-31T11:54:59;100677.59;;;25.81;47.16
21779;BME280;11050;52.222;20.916;2022-10-31T11:57:32;100679.06;;;25.99;46.69
21779;BME280;11050;52.222;20.916;2022-10-31T12:00:01;100679.97;;;26.23;45.85
21779;BME280;11050;52.222;20.916;2022-10-31T12:02:29;100686.94;;;26.50;45.09
21779;BME280;11050;52.222;20.916;2022-10-31T12:05:22;100694.13;;;26.60;44.15
21779;BME280;11050;52.222;20.916;2022-10-31T12:07:50;100685.34;;;26.73;44.70
21779;BME280;11050;52.222;20.916;2022-10-31T12:10:21;100685.91;;;26.91;43.82
21779;BME280;11050;52.222;20.916;2022-10-31T12:15:50;100669.44;;;26.69;43.84
21779;BME280;11050;52.222;20.916;2022-10-31T12:19:14;100676.84;;;26.49;44.29
21779;BME280;11050;52.222;20.916;2022-10-31T12:56:49;100680.47;;;26.38;44.07
21779;BME280;11050;52.222;20.916;2022-10-31T13:02:24;100677.78;;;25.96;46.63
21779;BME280;11050;52.222;20.916;2022-10-31T13:05:13;100676.91;;;25.84;46.81
21779;BME280;11050;52.222;20.916;2022-10-31T13:07:54;100670.72;;;26.02;47.12
21779;BME280;11050;52.222;20.916;2022-10-31T13:10:40;100673.66;;;26.39;45.37
21779;BME280;11050;52.222;20.916;2022-10-31T13:13:17;100681.44;;;26.66;44.30
21779;BME280;11050;52.222;20.916;2022-10-31T13:15:51;100676.97;;;26.65;44.68
21779;BME280;11050;52.222;20.916;2022-10-31T13:21:03;100677.69;;;26.74;43.99
21779;BME280;11050;52.222;20.916;2022-10-31T13:23:36;100676.59;;;26.66;44.15
21779;BME280;11050;52.222;20.916;2022-10-31T13:26:18;100671.44;;;26.32;44.20
21779;BME280;11050;52.222;20.916;2022-10-31T13:28:56;100669.63;;;25.83;45.53
21779;BME280;11050;52.222;20.916;2022-10-31T13:31:25;100677.44;;;25.45;47.17
21779;BME280;11050;52.222;20.916;2022-10-31T13:34:25;100675.72;;;25.02;48.25
21779;BME280;11050;52.222;20.916;2022-10-31T13:37:29;100671.41;;;24.76;49.85
21779;BME280;11050;52.222;20.916;2022-10-31T13:45:52;100665.16;;;24.32;51.95
21779;BME280;11050;52.222;20.916;2022-10-31T13:48:38;100667.72;;;24.17;52.67
21779;BME280;11050;52.222;20.916;2022-10-31T13:51:10;100673.34;;;24.08;53.66
21779;BME280;11050;52.222;20.916;2022-10-31T13:54:00;100673.00;;;23.93;54.37
21779;BME280;11050;52.222;20.916;2022-10-31T13:56:32;100668.78;;;23.61;55.26
21779;BME280;11050;52.222;20.916;2022-10-31T13:59:14;100664.16;;;23.31;56.31
21779;BME280;11050;52.222;20.916;2022-10-31T14:01:58;100665.28;;;23.13;56.99
21779;BME280;11050;52.222;20.916;2022-10-31T14:07:15;100660.50;;;22.48;60.06
21779;BME280;11050;52.222;20.916;2022-10-31T14:12:40;100660.25;;;21.97;63.46
21779;BME280;11050;52.222;20.916;2022-10-31T14:18:00;100650.97;;;21.44;66.27
21779;BME280;11050;52.222;20.916;2022-10-31T14:28:57;100648.91;;;20.24;72.14
21779;BME280;11050;52.222;20.916;2022-10-31T14:31:50;100653.16;;;19.75;75.18
21779;BME280;11050;52.222;20.916;2022-10-31T14:34:34;100649.97;;;19.13;78.08
21779;BME280;11050;52.222;20.916;2022-10-31T14:40:46;100652.69;;;17.86;87.18
21779;BME280;11050;52.222;20.916;2022-10-31T14:51:55;100648.13;;;16.35;100.00
21779;BME280;11050;52.222;20.916;2022-10-31T14:54:45;100644.03;;;16.12;100.00
21779;BME280;11050;52.222;20.916;2022-10-31T14:57:20;100638.28;;;15.94;100.00
21779;BME280;11050;52.222;20.916;2022-10-31T15:00:12;100639.41;;;15.83;100.00
21779;BME280;11050;52.222;20.916;2022-10-31T15:05:51;100639.16;;;15.64;100.00
21779;BME280;11050;52.222;20.916;2022-10-31T15:08:38;100642.78;;;15.55;100.00
21779;BME280;11050;52.222;20.916;2022-10-31T15:13:56;100649.13;;;15.40;100.00
21779;BME280;11050;52.222;20.916;2022-10-31T15:16:34;100647.19;;;15.31;100.00
21779;BME280;11050;52.222;20.916;2022-10-31T15:19:05;100648.03;;;15.21;100.00
21779;BME280;11050;52.222;20.916;2022-10-31T15:21:34;100641.66;;;15.15;100.00
21779;BME280;11050;52.222;20.916;2022-10-31T15:24:02;100638.31;;;15.13;100.00
21779;BME280;11050;52.222;20.916;2022-10-31T15:26:39;100635.28;;;15.10;100.00
21779;BME280;11050;52.222;20.916;2022-10-31T15:29:16;100641.91;;;15.09;100.00
21779;BME280;11050;52.222;20.916;2022-10-31T15:31:57;100648.28;;;15.04;100.00
21779;BME280;11050;52.222;20.916;2022-10-31T15:34:37;100642.16;;;14.92;100.00
21779;BME280;11050;52.222;20.916;2022-10-31T15:37:07;100642.69;;;14.84;100.00
21779;BME280;11050;52.222;20.916;2022-10-31T15:39:36;100649.88;;;14.80;100.00
21779;BME280;11050;52.222;20.916;2022-10-31T15:42:02;100650.16;;;14.74;100.00
21779;BME280;11050;52.222;20.916;2022-10-31T15:44:37;100636.56;;;14.62;100.00
21779;BME280;11050;52.222;20.916;2022-10-31T15:47:16;100648.44;;;14.58;100.00
21779;BME280;11050;52.222;20.916;2022-10-31T15:49:55;100647.88;;;14.56;100.00
21779;BME280;11050;52.222;20.916;2022-10-31T15:52:34;100651.75;;;14.55;100.00
21779;BME280;11050;52.222;20.916;2022-10-31T15:55:25;100652.00;;;14.48;100.00
21779;BME280;11050;52.222;20.916;2022-10-31T15:57:58;100653.09;;;14.47;100.00